createdAt,value
2019-06-01T00:00:38.079Z,0.00
2019-06-01T00:01:38.277Z,0.00
2019-06-01T00:02:38.555Z,0.00
2019-06-01T00:03:38.244Z,0.00
2019-06-01T00:04:38.675Z,0.00
2019-06-01T00:05:38.442Z,0.00
2019-06-01T00:06:38.647Z,0.00
2019-06-01T00:07:38.737Z,0.00
2019-06-01T00:08:40.173Z,0.00
2019-06-01T00:09:38.996Z,0.00
2019-06-01T00:10:38.943Z,0.00
2019-06-01T00:11:39.124Z,0.00
2019-06-01T00:12:39.211Z,0.00
2019-06-01T00:13:39.395Z,0.00
2019-06-01T00:14:37.939Z,0.00
2019-06-01T00:15:37.927Z,0.00
2019-06-01T00:16:37.906Z,0.00
2019-06-01T00:17:37.889Z,0.00
2019-06-01T00:18:37.879Z,0.00
2019-06-01T00:19:37.904Z,0.00
2019-06-01T00:20:37.859Z,0.00
2019-06-01T00:21:37.871Z,0.00
2019-06-01T00:22:37.838Z,0.00
2019-06-01T00:23:37.848Z,0.00
2019-06-01T00:24:37.840Z,0.00
2019-06-01T00:25:37.826Z,0.00
2019-06-01T00:26:37.797Z,0.00
2019-06-01T00:27:37.790Z,0.00
2019-06-01T00:28:37.769Z,0.00
2019-06-01T00:29:37.790Z,0.00
2019-06-01T00:30:37.760Z,0.00
2019-06-01T00:31:37.738Z,0.00
2019-06-01T00:32:37.728Z,0.00
2019-06-01T00:33:37.717Z,0.00
2019-06-01T00:34:37.725Z,0.00
2019-06-01T00:35:37.699Z,0.00
2019-06-01T00:36:37.689Z,0.00
2019-06-01T00:37:37.739Z,0.00
2019-06-01T00:38:37.669Z,0.00
2019-06-01T00:39:37.681Z,0.00
2019-06-01T00:40:37.660Z,0.00
2019-06-01T00:41:37.650Z,0.00
2019-06-01T00:42:37.632Z,0.00
2019-06-01T00:43:37.607Z,0.00
2019-06-01T00:44:38.098Z,0.00
2019-06-01T00:45:37.589Z,0.00
2019-06-01T00:46:37.598Z,0.00
2019-06-01T00:47:37.615Z,0.00
2019-06-01T00:48:37.581Z,0.00
2019-06-01T00:49:37.629Z,0.00
2019-06-01T00:50:37.586Z,0.00
2019-06-01T00:51:37.528Z,0.00
2019-06-01T00:52:37.609Z,0.00
2019-06-01T00:53:37.518Z,0.00
2019-06-01T00:54:37.527Z,0.00
2019-06-01T00:55:37.477Z,0.00
2019-06-01T00:56:37.479Z,0.00
2019-06-01T00:57:37.498Z,0.00
2019-06-01T00:58:37.471Z,0.00
2019-06-01T00:59:37.470Z,0.00
2019-06-01T01:00:43.825Z,0.00
2019-06-01T01:01:38.419Z,0.00
2019-06-01T01:02:37.418Z,0.00
2019-06-01T01:03:37.422Z,0.00
2019-06-01T01:04:37.399Z,0.00
2019-06-01T01:05:37.395Z,0.00
2019-06-01T01:06:37.384Z,0.00
2019-06-01T01:07:38.296Z,0.00
2019-06-01T01:08:37.368Z,0.00
2019-06-01T01:09:37.389Z,0.00
2019-06-01T01:10:37.401Z,0.00
2019-06-01T01:11:37.387Z,0.00
2019-06-01T01:12:37.359Z,0.00
2019-06-01T01:13:37.318Z,0.00
2019-06-01T01:14:37.307Z,0.00
2019-06-01T01:15:37.285Z,0.00
2019-06-01T01:16:37.338Z,0.00
2019-06-01T01:17:37.259Z,0.00
2019-06-01T01:18:37.290Z,0.00
2019-06-01T01:19:37.305Z,0.00
2019-06-01T01:20:37.249Z,0.00
2019-06-01T01:21:37.302Z,0.00
2019-06-01T01:22:37.278Z,0.00
2019-06-01T01:23:37.193Z,0.00
2019-06-01T01:24:37.210Z,0.00
2019-06-01T01:25:37.219Z,0.00
2019-06-01T01:26:37.140Z,0.00
2019-06-01T01:27:37.122Z,0.00
2019-06-01T01:28:37.163Z,0.00
2019-06-01T01:29:37.149Z,0.00
2019-06-01T01:30:37.204Z,0.00
2019-06-01T01:31:37.087Z,0.00
2019-06-01T01:32:37.070Z,0.00
2019-06-01T01:33:37.048Z,0.00
2019-06-01T01:34:37.053Z,0.00
2019-06-01T01:35:37.081Z,0.00
2019-06-01T01:36:37.043Z,0.00
2019-06-01T01:37:37.033Z,0.00
2019-06-01T01:38:37.042Z,0.00
2019-06-01T01:39:37.015Z,0.00
2019-06-01T01:40:37.048Z,0.00
2019-06-01T01:41:37.020Z,0.00
2019-06-01T01:42:36.960Z,0.00
2019-06-01T01:43:36.946Z,0.00
2019-06-01T01:44:36.940Z,0.00
2019-06-01T01:45:36.961Z,0.00
2019-06-01T01:46:36.949Z,0.00
2019-06-01T01:47:36.899Z,0.00
2019-06-01T01:48:36.888Z,0.00
2019-06-01T01:49:36.877Z,0.00
2019-06-01T01:50:36.898Z,0.00
2019-06-01T01:51:36.880Z,0.00
2019-06-01T01:52:36.864Z,0.00
2019-06-01T01:53:36.830Z,0.00
2019-06-01T01:54:36.860Z,0.00
2019-06-01T01:55:36.839Z,0.00
2019-06-01T01:56:36.810Z,0.00
2019-06-01T01:57:36.803Z,0.00
2019-06-01T01:58:36.786Z,0.00
2019-06-01T01:59:36.774Z,0.00
2019-06-01T02:00:36.806Z,0.00
2019-06-01T02:01:36.778Z,0.00
2019-06-01T02:02:36.731Z,0.00
2019-06-01T02:03:36.728Z,0.00
2019-06-01T02:04:36.710Z,0.00
2019-06-01T02:05:36.698Z,0.00
2019-06-01T02:06:36.708Z,0.00
2019-06-01T02:07:36.705Z,0.00
2019-06-01T02:08:36.714Z,0.00
2019-06-01T02:09:36.658Z,0.00
2019-06-01T02:10:36.665Z,0.00
2019-06-01T02:11:36.669Z,0.00
2019-06-01T02:12:36.678Z,0.00
2019-06-01T02:13:36.632Z,0.00
2019-06-01T02:14:36.606Z,0.00
2019-06-01T02:15:36.602Z,0.00
2019-06-01T02:16:36.600Z,0.00
2019-06-01T02:17:36.579Z,0.00
2019-06-01T02:18:36.562Z,0.00
2019-06-01T02:19:36.705Z,0.00
2019-06-01T02:20:36.539Z,0.00
2019-06-01T02:21:36.551Z,0.00
2019-06-01T02:22:36.536Z,0.00
2019-06-01T02:23:36.519Z,0.00
2019-06-01T02:24:36.499Z,0.00
2019-06-01T02:25:36.550Z,0.00
2019-06-01T02:26:36.500Z,0.00
2019-06-01T02:27:36.467Z,0.00
2019-06-01T02:28:36.455Z,0.00
2019-06-01T02:29:36.448Z,0.00
2019-06-01T02:30:36.443Z,0.00
2019-06-01T02:31:42.427Z,0.00
2019-06-01T02:32:37.422Z,0.00
2019-06-01T02:33:36.404Z,0.00
2019-06-01T02:34:36.386Z,0.00
2019-06-01T02:35:36.381Z,0.00
2019-06-01T02:36:36.416Z,0.00
2019-06-01T02:37:36.357Z,0.00
2019-06-01T02:38:36.366Z,0.00
2019-06-01T02:39:36.339Z,0.00
2019-06-01T02:40:36.340Z,0.00
2019-06-01T02:41:36.329Z,0.00
2019-06-01T02:42:36.303Z,0.00
2019-06-01T02:43:36.283Z,0.00
2019-06-01T02:44:36.282Z,4.00
2019-06-01T02:45:36.297Z,4.00
2019-06-01T02:46:36.399Z,0.00
2019-06-01T02:47:36.240Z,4.00
2019-06-01T02:48:36.230Z,4.00
2019-06-01T02:49:36.221Z,4.00
2019-06-01T02:50:36.277Z,4.00
2019-06-01T02:51:36.238Z,4.00
2019-06-01T02:52:36.208Z,8.00
2019-06-01T02:53:36.178Z,8.00
2019-06-01T02:54:36.195Z,8.00
2019-06-01T02:55:36.160Z,8.00
2019-06-01T02:56:36.154Z,12.00
2019-06-01T02:57:36.158Z,12.00
2019-06-01T02:58:36.120Z,12.00
2019-06-01T02:59:36.117Z,16.00
2019-06-01T03:00:36.104Z,20.00
2019-06-01T03:01:36.089Z,20.00
2019-06-01T03:02:36.110Z,24.00
2019-06-01T03:03:36.062Z,28.00
2019-06-01T03:04:36.056Z,28.00
2019-06-01T03:05:36.043Z,32.00
2019-06-01T03:06:36.041Z,36.00
2019-06-01T03:07:36.048Z,44.00
2019-06-01T03:08:36.014Z,48.00
2019-06-01T03:09:36.023Z,56.00
2019-06-01T03:10:35.988Z,56.00
2019-06-01T03:11:35.989Z,64.00
2019-06-01T03:12:36.990Z,72.00
2019-06-01T03:13:35.978Z,76.00
2019-06-01T03:14:35.963Z,84.00
2019-06-01T03:15:35.939Z,92.00
2019-06-01T03:16:35.923Z,100.00
2019-06-01T03:17:35.939Z,108.00
2019-06-01T03:18:35.908Z,120.00
2019-06-01T03:19:35.897Z,132.00
2019-06-01T03:20:35.880Z,140.00
2019-06-01T03:21:35.878Z,148.00
2019-06-01T03:22:35.874Z,160.00
2019-06-01T03:23:35.848Z,172.00
2019-06-01T03:24:35.831Z,184.00
2019-06-01T03:25:35.818Z,196.00
2019-06-01T03:26:35.821Z,208.00
2019-06-01T03:27:35.823Z,220.00
2019-06-01T03:28:35.788Z,236.00
2019-06-01T03:29:35.779Z,248.00
2019-06-01T03:30:35.769Z,264.00
2019-06-01T03:31:35.757Z,280.00
2019-06-01T03:32:37.312Z,296.00
2019-06-01T03:33:35.750Z,312.00
2019-06-01T03:34:35.727Z,328.00
2019-06-01T03:35:35.717Z,344.00
2019-06-01T03:36:35.698Z,360.00
2019-06-01T03:37:35.705Z,376.00
2019-06-01T03:38:35.698Z,392.00
2019-06-01T03:39:35.668Z,408.00
2019-06-01T03:40:35.657Z,428.00
2019-06-01T03:41:35.649Z,444.00
2019-06-01T03:42:35.651Z,456.00
2019-06-01T03:43:35.650Z,476.00
2019-06-01T03:44:35.621Z,492.00
2019-06-01T03:45:35.612Z,508.00
2019-06-01T03:46:35.588Z,524.00
2019-06-01T03:47:35.583Z,540.00
2019-06-01T03:48:35.588Z,560.00
2019-06-01T03:49:35.568Z,572.00
2019-06-01T03:50:35.550Z,592.00
2019-06-01T03:51:35.540Z,608.00
2019-06-01T03:52:35.520Z,624.00
2019-06-01T03:53:35.588Z,640.00
2019-06-01T03:54:35.504Z,656.00
2019-06-01T03:55:35.491Z,672.00
2019-06-01T03:56:35.478Z,688.00
2019-06-01T03:57:35.466Z,700.00
2019-06-01T03:58:35.472Z,716.00
2019-06-01T03:59:35.448Z,732.00
2019-06-01T04:00:35.450Z,748.00
2019-06-01T04:01:35.437Z,764.00
2019-06-01T04:02:35.417Z,776.00
2019-06-01T04:03:35.420Z,792.00
2019-06-01T04:04:35.403Z,804.00
2019-06-01T04:05:35.386Z,816.00
2019-06-01T04:06:35.428Z,832.00
2019-06-01T04:07:38.284Z,848.00
2019-06-01T04:08:35.367Z,860.00
2019-06-01T04:09:35.338Z,876.00
2019-06-01T04:10:35.328Z,888.00
2019-06-01T04:11:35.317Z,900.00
2019-06-01T04:12:35.317Z,916.00
2019-06-01T04:13:35.346Z,924.00
2019-06-01T04:14:35.288Z,940.00
2019-06-01T04:15:35.269Z,952.00
2019-06-01T04:16:35.271Z,964.00
2019-06-01T04:17:35.256Z,976.00
2019-06-01T04:18:35.257Z,992.00
2019-06-01T04:19:35.228Z,1000.00
2019-06-01T04:20:35.218Z,1012.00
2019-06-01T04:21:35.209Z,1024.00
2019-06-01T04:22:35.188Z,1036.00
2019-06-01T04:23:36.455Z,1048.00
2019-06-01T04:24:35.168Z,1064.00
2019-06-01T04:25:35.157Z,1080.00
2019-06-01T04:26:35.148Z,1100.00
2019-06-01T04:27:35.176Z,1112.00
2019-06-01T04:28:35.154Z,1132.00
2019-06-01T04:29:35.118Z,1148.00
2019-06-01T04:30:35.099Z,1168.00
2019-06-01T04:31:35.098Z,1184.00
2019-06-01T04:32:48.781Z,1204.00
2019-06-01T04:33:36.097Z,1224.00
2019-06-01T04:34:35.809Z,1236.00
2019-06-01T04:35:35.048Z,1256.00
2019-06-01T04:36:35.041Z,1268.00
2019-06-01T04:37:35.028Z,1284.00
2019-06-01T04:38:35.017Z,1304.00
2019-06-01T04:39:35.019Z,1320.00
2019-06-01T04:40:34.996Z,1336.00
2019-06-01T04:41:34.986Z,1352.00
2019-06-01T04:42:34.978Z,1372.00
2019-06-01T04:43:34.975Z,1384.00
2019-06-01T04:44:34.989Z,1400.00
2019-06-01T04:45:34.945Z,1412.00
2019-06-01T04:46:34.927Z,1428.00
2019-06-01T04:47:34.925Z,1444.00
2019-06-01T04:48:34.914Z,1464.00
2019-06-01T04:49:34.921Z,1480.00
2019-06-01T04:50:34.887Z,1492.00
2019-06-01T04:51:34.877Z,1504.00
2019-06-01T04:52:34.859Z,1516.00
2019-06-01T04:53:34.857Z,1532.00
2019-06-01T04:54:34.868Z,1552.00
2019-06-01T04:55:34.836Z,1568.00
2019-06-01T04:56:34.816Z,1588.00
2019-06-01T04:57:34.807Z,1612.00
2019-06-01T04:58:34.796Z,1616.00
2019-06-01T04:59:37.700Z,1628.00
2019-06-01T05:00:34.786Z,1676.00
2019-06-01T05:01:34.769Z,1696.00
2019-06-01T05:02:34.756Z,1712.00
2019-06-01T05:03:34.745Z,1732.00
2019-06-01T05:04:34.747Z,1752.00
2019-06-01T05:05:34.722Z,1780.00
2019-06-01T05:06:34.708Z,1804.00
2019-06-01T05:07:34.697Z,1828.00
2019-06-01T05:08:34.695Z,1848.00
2019-06-01T05:09:34.706Z,1868.00
2019-06-01T05:10:34.663Z,1884.00
2019-06-01T05:11:34.658Z,1904.00
2019-06-01T05:12:34.637Z,1924.00
2019-06-01T05:13:34.633Z,1944.00
2019-06-01T05:14:34.646Z,1964.00
2019-06-01T05:15:34.627Z,1984.00
2019-06-01T05:16:34.676Z,2004.00
2019-06-01T05:17:34.607Z,2016.00
2019-06-01T05:18:34.606Z,2036.00
2019-06-01T05:19:34.565Z,2052.00
2019-06-01T05:20:34.574Z,2076.00
2019-06-01T05:21:34.543Z,2108.00
2019-06-01T05:22:34.574Z,2132.00
2019-06-01T05:23:34.527Z,2156.00
2019-06-01T05:24:34.506Z,2172.00
2019-06-01T05:25:34.506Z,2196.00
2019-06-01T05:26:34.500Z,2220.00
2019-06-01T05:27:34.534Z,2236.00
2019-06-01T05:28:34.475Z,2260.00
2019-06-01T05:29:34.456Z,2284.00
2019-06-01T05:30:34.456Z,2308.00
2019-06-01T05:31:34.437Z,2332.00
2019-06-01T05:32:34.448Z,2344.00
2019-06-01T05:33:37.624Z,2356.00
2019-06-01T05:34:34.395Z,2368.00
2019-06-01T05:35:34.388Z,2376.00
2019-06-01T05:36:34.376Z,2380.00
2019-06-01T05:37:34.378Z,2396.00
2019-06-01T05:38:34.395Z,2416.00
2019-06-01T05:39:34.347Z,2428.00
2019-06-01T05:40:34.336Z,2448.00
2019-06-01T05:41:34.317Z,2456.00
2019-06-01T05:42:34.327Z,2464.00
2019-06-01T05:43:34.377Z,2472.00
2019-06-01T05:44:34.287Z,2484.00
2019-06-01T05:45:34.275Z,2496.00
2019-06-01T05:46:34.268Z,2512.00
2019-06-01T05:47:34.259Z,2532.00
2019-06-01T05:48:34.271Z,2552.00
2019-06-01T05:49:34.273Z,2580.00
2019-06-01T05:50:34.247Z,2612.00
2019-06-01T05:51:34.220Z,2664.00
2019-06-01T05:52:34.205Z,2748.00
2019-06-01T05:53:34.239Z,2860.00
2019-06-01T05:54:34.186Z,2992.00
2019-06-01T05:55:34.195Z,3148.00
2019-06-01T05:56:34.204Z,3324.00
2019-06-01T05:57:34.154Z,3536.00
2019-06-01T05:58:34.144Z,3756.00
2019-06-01T05:59:34.126Z,3976.00
2019-06-01T06:00:34.117Z,4160.00
2019-06-01T06:01:34.125Z,4252.00
2019-06-01T06:02:34.100Z,4284.00
2019-06-01T06:03:40.226Z,4336.00
2019-06-01T06:04:35.089Z,4468.00
2019-06-01T06:05:34.056Z,4532.00
2019-06-01T06:06:34.068Z,4548.00
2019-06-01T06:07:34.049Z,4516.00
2019-06-01T06:08:34.029Z,4324.00
2019-06-01T06:09:34.209Z,4176.00
2019-06-01T06:10:34.006Z,4092.00
2019-06-01T06:11:34.018Z,4112.00
2019-06-01T06:12:33.984Z,4176.00
2019-06-01T06:13:33.977Z,4220.00
2019-06-01T06:14:33.965Z,4216.00
2019-06-01T06:15:33.955Z,4420.00
2019-06-01T06:16:33.973Z,4676.00
2019-06-01T06:17:33.955Z,5360.00
2019-06-01T06:18:33.916Z,5504.00
2019-06-01T06:19:33.914Z,5332.00
2019-06-01T06:20:33.919Z,5092.00
2019-06-01T06:21:33.899Z,3252.00
2019-06-01T06:22:33.876Z,2932.00
2019-06-01T06:23:33.864Z,2748.00
2019-06-01T06:24:33.877Z,2708.00
2019-06-01T06:25:35.755Z,2544.00
2019-06-01T06:26:33.825Z,2428.00
2019-06-01T06:27:33.822Z,2392.00
2019-06-01T06:28:33.810Z,2388.00
2019-06-01T06:29:33.807Z,2376.00
2019-06-01T06:30:33.811Z,2368.00
2019-06-01T06:31:33.795Z,2356.00
2019-06-01T06:32:33.771Z,2340.00
2019-06-01T06:33:36.760Z,2332.00
2019-06-01T06:34:33.771Z,2320.00
2019-06-01T06:35:33.761Z,2308.00
2019-06-01T06:36:33.731Z,2296.00
2019-06-01T06:37:33.715Z,2292.00
2019-06-01T06:38:33.697Z,2280.00
2019-06-01T06:39:33.685Z,2276.00
2019-06-01T06:40:33.701Z,2272.00
2019-06-01T06:41:33.694Z,2264.00
2019-06-01T06:42:33.655Z,2260.00
2019-06-01T06:43:33.652Z,2256.00
2019-06-01T06:44:33.636Z,2252.00
2019-06-01T06:45:33.618Z,2252.00
2019-06-01T06:46:33.628Z,2256.00
2019-06-01T06:47:33.596Z,2256.00
2019-06-01T06:48:33.593Z,2252.00
2019-06-01T06:49:33.583Z,2248.00
2019-06-01T06:50:33.586Z,2248.00
2019-06-01T06:51:33.576Z,2252.00
2019-06-01T06:52:33.557Z,2252.00
2019-06-01T06:53:35.491Z,2248.00
2019-06-01T06:54:33.524Z,2232.00
2019-06-01T06:55:33.506Z,2228.00
2019-06-01T06:56:33.526Z,2228.00
2019-06-01T06:57:33.496Z,2228.00
2019-06-01T06:58:33.480Z,2228.00
2019-06-01T06:59:33.464Z,2224.00
2019-06-01T07:00:33.457Z,2208.00
2019-06-01T07:01:33.458Z,2208.00
2019-06-01T07:02:33.447Z,2204.00
2019-06-01T07:03:33.448Z,2204.00
2019-06-01T07:04:33.415Z,2200.00
2019-06-01T07:05:33.412Z,2192.00
2019-06-01T07:06:33.391Z,2204.00
2019-06-01T07:07:33.410Z,2208.00
2019-06-01T07:08:33.378Z,2208.00
2019-06-01T07:09:33.359Z,2208.00
2019-06-01T07:10:33.351Z,2216.00
2019-06-01T07:11:33.349Z,2220.00
2019-06-01T07:12:33.351Z,2216.00
2019-06-01T07:13:33.322Z,2224.00
2019-06-01T07:14:33.312Z,2224.00
2019-06-01T07:15:33.300Z,2228.00
2019-06-01T07:16:33.277Z,2224.00
2019-06-01T07:17:33.298Z,2228.00
2019-06-01T07:18:33.272Z,2228.00
2019-06-01T07:19:33.276Z,2232.00
2019-06-01T07:20:33.265Z,2236.00
2019-06-01T07:21:33.221Z,2236.00
2019-06-01T07:22:33.227Z,2236.00
2019-06-01T07:23:33.227Z,2236.00
2019-06-01T07:24:33.196Z,2232.00
2019-06-01T07:25:33.178Z,2232.00
2019-06-01T07:26:33.165Z,2228.00
2019-06-01T07:27:33.177Z,2228.00
2019-06-01T07:28:33.154Z,2220.00
2019-06-01T07:29:33.148Z,2228.00
2019-06-01T07:30:49.465Z,2216.00
2019-06-01T07:31:34.111Z,2208.00
2019-06-01T07:32:33.131Z,2212.00
2019-06-01T07:33:33.097Z,2212.00
2019-06-01T07:34:40.265Z,2200.00
2019-06-01T07:35:34.078Z,2204.00
2019-06-01T07:36:33.058Z,2204.00
2019-06-01T07:37:33.067Z,2204.00
2019-06-01T07:38:33.274Z,2200.00
2019-06-01T07:39:33.481Z,2204.00
2019-06-01T07:40:33.090Z,2196.00
2019-06-01T07:41:33.137Z,2200.00
2019-06-01T07:42:33.134Z,2200.00
2019-06-01T07:43:33.309Z,2200.00
2019-06-01T07:44:33.293Z,2200.00
2019-06-01T07:45:35.223Z,2200.00
2019-06-01T07:46:33.233Z,2196.00
2019-06-01T07:47:34.033Z,2200.00
2019-06-01T07:48:33.485Z,2208.00
2019-06-01T07:49:32.972Z,2216.00
2019-06-01T07:50:32.927Z,2216.00
2019-06-01T07:51:32.914Z,2224.00
2019-06-01T07:52:32.888Z,2224.00
2019-06-01T07:53:32.889Z,2232.00
2019-06-01T07:54:32.873Z,2228.00
2019-06-01T07:55:32.852Z,2240.00
2019-06-01T07:56:32.931Z,2236.00
2019-06-01T07:57:32.847Z,2240.00
2019-06-01T07:58:32.990Z,2252.00
2019-06-01T07:59:32.809Z,2236.00
2019-06-01T08:00:33.245Z,2260.00
2019-06-01T08:01:32.992Z,2256.00
2019-06-01T08:02:33.143Z,2256.00
2019-06-01T08:03:34.980Z,2260.00
2019-06-01T08:04:50.691Z,2256.00
2019-06-01T08:05:33.751Z,2272.00
2019-06-01T08:06:32.908Z,2276.00
2019-06-01T08:07:32.719Z,2284.00
2019-06-01T08:08:32.836Z,2284.00
2019-06-01T08:09:32.711Z,2280.00
2019-06-01T08:10:32.687Z,2276.00
2019-06-01T08:11:34.942Z,2284.00
2019-06-01T08:12:32.671Z,2284.00
2019-06-01T08:13:35.445Z,2292.00
2019-06-01T08:14:32.930Z,2296.00
2019-06-01T08:15:32.631Z,2308.00
2019-06-01T08:16:32.620Z,2312.00
2019-06-01T08:17:32.638Z,2316.00
2019-06-01T08:18:32.670Z,2316.00
2019-06-01T08:19:32.590Z,2308.00
2019-06-01T08:20:32.579Z,2300.00
2019-06-01T08:21:32.569Z,2296.00
2019-06-01T08:22:32.577Z,2280.00
2019-06-01T08:23:32.656Z,2272.00
2019-06-01T08:24:32.552Z,2272.00
2019-06-01T08:25:32.836Z,2276.00
2019-06-01T08:26:32.773Z,2292.00
2019-06-01T08:27:32.723Z,2304.00
2019-06-01T08:28:32.769Z,2296.00
2019-06-01T08:29:32.846Z,2296.00
2019-06-01T08:30:32.737Z,2296.00
2019-06-01T08:31:33.666Z,2292.00
2019-06-01T08:32:32.881Z,2300.00
2019-06-01T08:33:34.836Z,2312.00
2019-06-01T08:34:33.113Z,2320.00
2019-06-01T08:35:33.209Z,2316.00
2019-06-01T08:36:33.954Z,2304.00
2019-06-01T08:37:33.555Z,2292.00
2019-06-01T08:38:33.672Z,2284.00
2019-06-01T08:39:34.119Z,2292.00
2019-06-01T08:40:33.491Z,2296.00
2019-06-01T08:41:33.612Z,2300.00
2019-06-01T08:42:33.637Z,2312.00
2019-06-01T08:43:33.813Z,2316.00
2019-06-01T08:44:33.662Z,2324.00
2019-06-01T08:45:36.106Z,2328.00
2019-06-01T08:46:33.968Z,2332.00
2019-06-01T08:47:32.301Z,2332.00
2019-06-01T08:48:32.291Z,2324.00
2019-06-01T08:49:32.575Z,2340.00
2019-06-01T08:50:32.261Z,2352.00
2019-06-01T08:51:32.253Z,2372.00
2019-06-01T08:52:32.344Z,2392.00
2019-06-01T08:53:32.315Z,2404.00
2019-06-01T08:54:32.374Z,2416.00
2019-06-01T08:55:32.349Z,2424.00
2019-06-01T08:56:32.384Z,2452.00
2019-06-01T08:57:32.469Z,2460.00
2019-06-01T08:58:32.530Z,2472.00
2019-06-01T08:59:32.572Z,2492.00
2019-06-01T09:00:32.635Z,2496.00
2019-06-01T09:01:32.789Z,2480.00
2019-06-01T09:02:32.802Z,2456.00
2019-06-01T09:03:32.121Z,2424.00
2019-06-01T09:04:32.797Z,2384.00
2019-06-01T09:05:33.019Z,2348.00
2019-06-01T09:06:33.173Z,2340.00
2019-06-01T09:07:33.183Z,2356.00
2019-06-01T09:08:33.217Z,2364.00
2019-06-01T09:09:33.127Z,2352.00
2019-06-01T09:10:33.197Z,2372.00
2019-06-01T09:11:33.229Z,2372.00
2019-06-01T09:12:33.252Z,2376.00
2019-06-01T09:13:33.242Z,2384.00
2019-06-01T09:14:33.374Z,2396.00
2019-06-01T09:15:31.998Z,2384.00
2019-06-01T09:16:31.974Z,2376.00
2019-06-01T09:17:31.954Z,2344.00
2019-06-01T09:18:31.958Z,2324.00
2019-06-01T09:19:32.029Z,2308.00
2019-06-01T09:20:35.279Z,2308.00
2019-06-01T09:21:33.593Z,2312.00
2019-06-01T09:22:31.914Z,2296.00
2019-06-01T09:23:31.907Z,2292.00
2019-06-01T09:24:32.005Z,2284.00
2019-06-01T09:25:31.895Z,2272.00
2019-06-01T09:26:32.025Z,2268.00
2019-06-01T09:27:32.064Z,2276.00
2019-06-01T09:28:32.077Z,2268.00
2019-06-01T09:29:32.144Z,2284.00
2019-06-01T09:30:32.147Z,2276.00
2019-06-01T09:31:32.376Z,2272.00
2019-06-01T09:32:32.200Z,2276.00
2019-06-01T09:33:32.241Z,2280.00
2019-06-01T09:34:32.433Z,2268.00
2019-06-01T09:35:50.780Z,2276.00
2019-06-01T09:36:32.755Z,2272.00
2019-06-01T09:37:32.513Z,2280.00
2019-06-01T09:38:31.749Z,2284.00
2019-06-01T09:39:33.052Z,2280.00
2019-06-01T09:40:33.441Z,2268.00
2019-06-01T09:41:32.608Z,2280.00
2019-06-01T09:42:33.267Z,2292.00
2019-06-01T09:43:32.762Z,2292.00
2019-06-01T09:44:31.941Z,2300.00
2019-06-01T09:45:32.893Z,2280.00
2019-06-01T09:46:32.583Z,2312.00
2019-06-01T09:47:31.637Z,2316.00
2019-06-01T09:48:31.627Z,2332.00
2019-06-01T09:49:32.662Z,2348.00
2019-06-01T09:50:31.626Z,2356.00
2019-06-01T09:51:31.603Z,2360.00
2019-06-01T09:52:31.621Z,2348.00
2019-06-01T09:53:32.527Z,2348.00
2019-06-01T09:54:33.067Z,2344.00
2019-06-01T09:55:32.687Z,2332.00
2019-06-01T09:56:33.515Z,2320.00
2019-06-01T09:57:31.966Z,2324.00
2019-06-01T09:58:32.193Z,2332.00
2019-06-01T09:59:31.948Z,2336.00
2019-06-01T10:00:32.350Z,2340.00
2019-06-01T10:01:32.404Z,2348.00
2019-06-01T10:02:32.057Z,2380.00
2019-06-01T10:03:32.484Z,2396.00
2019-06-01T10:04:32.303Z,2416.00
2019-06-01T10:05:32.401Z,2480.00
2019-06-01T10:06:32.453Z,2456.00
2019-06-01T10:07:32.713Z,2420.00
2019-06-01T10:08:32.599Z,2400.00
2019-06-01T10:09:31.580Z,2388.00
2019-06-01T10:10:31.858Z,2376.00
2019-06-01T10:11:32.511Z,2360.00
2019-06-01T10:12:31.903Z,2312.00
2019-06-01T10:13:32.919Z,2356.00
2019-06-01T10:14:32.130Z,2336.00
2019-06-01T10:15:32.498Z,2328.00
2019-06-01T10:16:32.724Z,2332.00
2019-06-01T10:17:33.188Z,2308.00
2019-06-01T10:18:32.596Z,2328.00
2019-06-01T10:19:32.517Z,2328.00
2019-06-01T10:20:33.068Z,2352.00
2019-06-01T10:21:32.037Z,2356.00
2019-06-01T10:22:31.255Z,2368.00
2019-06-01T10:23:32.366Z,2372.00
2019-06-01T10:24:31.237Z,2368.00
2019-06-01T10:25:32.449Z,2384.00
2019-06-01T10:26:31.430Z,2384.00
2019-06-01T10:27:32.443Z,2392.00
2019-06-01T10:28:31.579Z,2412.00
2019-06-01T10:29:32.491Z,2408.00
2019-06-01T10:30:31.687Z,2408.00
2019-06-01T10:31:32.555Z,2400.00
2019-06-01T10:32:32.543Z,2400.00
2019-06-01T10:33:31.137Z,2392.00
2019-06-01T10:34:31.528Z,2388.00
2019-06-01T10:35:31.111Z,2376.00
2019-06-01T10:36:31.918Z,2376.00
2019-06-01T10:37:31.422Z,2380.00
2019-06-01T10:38:31.166Z,2376.00
2019-06-01T10:39:31.279Z,2388.00
2019-06-01T10:40:31.295Z,2388.00
2019-06-01T10:41:31.266Z,2380.00
2019-06-01T10:42:32.698Z,2372.00
2019-06-01T10:43:31.461Z,2380.00
2019-06-01T10:44:31.590Z,2388.00
2019-06-01T10:45:31.798Z,2396.00
2019-06-01T10:46:31.856Z,2392.00
2019-06-01T10:47:31.747Z,2376.00
2019-06-01T10:48:32.712Z,2368.00
2019-06-01T10:49:31.841Z,2372.00
2019-06-01T10:50:33.037Z,2388.00
2019-06-01T10:51:32.068Z,2384.00
2019-06-01T10:52:31.979Z,2376.00
2019-06-01T10:53:32.033Z,2396.00
2019-06-01T10:54:32.527Z,2412.00
2019-06-01T10:55:31.998Z,2380.00
2019-06-01T10:56:32.206Z,2388.00
2019-06-01T10:57:32.242Z,2384.00
2019-06-01T10:58:32.150Z,2388.00
2019-06-01T10:59:32.138Z,2396.00
2019-06-01T11:00:39.668Z,2404.00
2019-06-01T11:01:34.129Z,2424.00
2019-06-01T11:02:30.824Z,2432.00
2019-06-01T11:03:30.803Z,2424.00
2019-06-01T11:04:30.792Z,2412.00
2019-06-01T11:05:30.811Z,2404.00
2019-06-01T11:06:37.705Z,2424.00
2019-06-01T11:07:32.748Z,2452.00
2019-06-01T11:08:30.756Z,2496.00
2019-06-01T11:09:30.799Z,2560.00
2019-06-01T11:10:30.722Z,2592.00
2019-06-01T11:11:30.714Z,2548.00
2019-06-01T11:12:31.260Z,2508.00
2019-06-01T11:13:30.703Z,2460.00
2019-06-01T11:14:30.696Z,2420.00
2019-06-01T11:15:30.674Z,2440.00
2019-06-01T11:16:30.693Z,2444.00
2019-06-01T11:17:30.672Z,2432.00
2019-06-01T11:18:30.666Z,2436.00
2019-06-01T11:19:30.653Z,2444.00
2019-06-01T11:20:30.664Z,2472.00
2019-06-01T11:21:30.612Z,2492.00
2019-06-01T11:22:30.594Z,2560.00
2019-06-01T11:23:30.613Z,2660.00
2019-06-01T11:24:30.591Z,2728.00
2019-06-01T11:25:30.651Z,2612.00
2019-06-01T11:26:30.685Z,2540.00
2019-06-01T11:27:30.594Z,2496.00
2019-06-01T11:28:30.831Z,2496.00
2019-06-01T11:29:30.526Z,2488.00
2019-06-01T11:30:30.537Z,2468.00
2019-06-01T11:31:30.505Z,2492.00
2019-06-01T11:32:30.514Z,2508.00
2019-06-01T11:33:30.484Z,2532.00
2019-06-01T11:34:30.465Z,2556.00
2019-06-01T11:35:30.514Z,2616.00
2019-06-01T11:36:30.445Z,2680.00
2019-06-01T11:37:30.436Z,2640.00
2019-06-01T11:38:30.429Z,2600.00
2019-06-01T11:39:30.577Z,2596.00
2019-06-01T11:40:30.474Z,2616.00
2019-06-01T11:41:30.395Z,2692.00
2019-06-01T11:42:30.385Z,2784.00
2019-06-01T11:43:30.369Z,2896.00
2019-06-01T11:44:30.389Z,3020.00
2019-06-01T11:45:30.372Z,3012.00
2019-06-01T11:46:30.336Z,2832.00
2019-06-01T11:47:30.341Z,2708.00
2019-06-01T11:48:30.325Z,2624.00
2019-06-01T11:49:30.327Z,2604.00
2019-06-01T11:50:30.309Z,2608.00
2019-06-01T11:51:30.305Z,2684.00
2019-06-01T11:52:30.272Z,2732.00
2019-06-01T11:53:30.297Z,2768.00
2019-06-01T11:54:30.258Z,2920.00
2019-06-01T11:55:30.318Z,3116.00
2019-06-01T11:56:30.235Z,3016.00
2019-06-01T11:57:30.222Z,2764.00
2019-06-01T11:58:30.235Z,2596.00
2019-06-01T11:59:30.214Z,2544.00
2019-06-01T12:00:30.217Z,2528.00
2019-06-01T12:01:30.167Z,2532.00
2019-06-01T12:02:30.176Z,2528.00
2019-06-01T12:03:30.154Z,2540.00
2019-06-01T12:04:30.138Z,2540.00
2019-06-01T12:05:30.127Z,2536.00
2019-06-01T12:06:30.137Z,2540.00
2019-06-01T12:07:30.112Z,2580.00
2019-06-01T12:08:33.956Z,2652.00
2019-06-01T12:09:30.088Z,2720.00
2019-06-01T12:10:30.078Z,2760.00
2019-06-01T12:11:30.138Z,2692.00
2019-06-01T12:12:30.048Z,2612.00
2019-06-01T12:13:30.069Z,2560.00
2019-06-01T12:14:30.048Z,2536.00
2019-06-01T12:15:30.029Z,2532.00
2019-06-01T12:16:30.041Z,2540.00
2019-06-01T12:17:30.019Z,2536.00
2019-06-01T12:18:29.995Z,2528.00
2019-06-01T12:19:29.983Z,2524.00
2019-06-01T12:20:29.976Z,2524.00
2019-06-01T12:21:29.988Z,2516.00
2019-06-01T12:22:29.949Z,2512.00
2019-06-01T12:23:29.938Z,2504.00
2019-06-01T12:24:29.923Z,2500.00